Current | Forecast
Updated: 6:30 AM JST on January 18, 2018
Observed at Izumo, Japan
Temperature 43°F
Windchill 40°F
Humidity 93%
Dew Point 41°F
Wind South at 5 mph
Pressure 30.06 in (Rising)
Conditions Mostly Cloudy
Visibility 6.2 miles
UV 0 out of 16
Clouds (FEW) : 2500 ft
Scattered Clouds (SCT) : 3000 ft
Mostly Cloudy (BKN) : 4000 ft
Yesterday's Maximum 50°F
Yesterday's Minimum 46°F approx.
Yesterday's Heating Degree Days 17 approx.
Sunrise7:15 AM JST
Sunset5:20 PM JST
Moon Rise7:48 AM JST
Moon Set6:24 PM JST
Moon PhaseMoon Phase
New Moon
Raw METARMETAR RJOC 172130Z 18004KT 9999 FEW025 SCT030 BKN040 06/05 Q1018


Monday
. High: 78° F.
Tuesday
. High: 73° F.
Wednesday
. High: 71° F.
Thursday
. High: 77° F.
Friday
. High: 80° F.
Saturday
. High: 75° F.
Sunday
. High: 75° F.
Monday
. High: 78° F.

Units: English | Metric

Find the Weather for any City, State or Zipcode, or Country:

U.S. State List | Severe Weather | Tropical Storms | Ski Conditions
United States | Canada | Central America | South America | Asia | Europe | Australia | Africa | Islands

Weather Underground

© Copyright 2018
The Weather Company, LLC